sensor_id;sensor_type;location;lat;lon;timestamp;pressure;altitude;pressure_sealevel;temperature;humidity
3096;BME280;1558;42.700;23.360;2024-01-27T00:01:58;95795.66;;;3.58;87.72
3096;BME280;1558;42.700;23.360;2024-01-27T00:04:26;95796.47;;;3.58;87.27
3096;BME280;1558;42.700;23.360;2024-01-27T00:06:54;95703.22;;;2.99;87.05
3096;BME280;1558;42.700;23.360;2024-01-27T00:09:23;95799.66;;;3.60;87.94
3096;BME280;1558;42.700;23.360;2024-01-27T00:11:51;95800.84;;;3.34;87.95
3096;BME280;1558;42.700;23.360;2024-01-27T00:14:21;95808.16;;;3.03;87.82
3096;BME280;1558;42.700;23.360;2024-01-27T00:16:50;95801.59;;;2.65;89.35
3096;BME280;1558;42.700;23.360;2024-01-27T00:19:18;95781.63;;;2.63;92.10
3096;BME280;1558;42.700;23.360;2024-01-27T00:21:49;95774.19;;;2.55;92.33
3096;BME280;1558;42.700;23.360;2024-01-27T00:24:18;95657.75;;;1.71;93.65
3096;BME280;1558;42.700;23.360;2024-01-27T00:26:46;95790.72;;;2.52;94.67
3096;BME280;1558;42.700;23.360;2024-01-27T00:29:14;95797.59;;;2.68;96.22
3096;BME280;1558;42.700;23.360;2024-01-27T00:31:44;95790.66;;;2.57;95.26
3096;BME280;1558;42.700;23.360;2024-01-27T00:34:12;95795.50;;;2.04;95.54
3096;BME280;1558;42.700;23.360;2024-01-27T00:36:40;95792.84;;;1.89;96.02
3096;BME280;1558;42.700;23.360;2024-01-27T00:39:16;95795.47;;;1.84;97.47
3096;BME280;1558;42.700;23.360;2024-01-27T00:41:44;95791.75;;;1.80;100.00
3096;BME280;1558;42.700;23.360;2024-01-27T00:44:15;95606.34;;;0.60;100.00
3096;BME280;1558;42.700;23.360;2024-01-27T00:46:47;95794.94;;;1.72;100.00
3096;BME280;1558;42.700;23.360;2024-01-27T00:49:17;95784.31;;;1.97;100.00
3096;BME280;1558;42.700;23.360;2024-01-27T00:51:46;95610.94;;;0.85;100.00
3096;BME280;1558;42.700;23.360;2024-01-27T00:54:14;95783.53;;;2.07;100.00
3096;BME280;1558;42.700;23.360;2024-01-27T00:56:43;95782.19;;;1.89;100.00
3096;BME280;1558;42.700;23.360;2024-01-27T00:59:12;95775.81;;;1.75;100.00
3096;BME280;1558;42.700;23.360;2024-01-27T01:01:40;95697.06;;;1.29;100.00
3096;BME280;1558;42.700;23.360;2024-01-27T01:04:11;95781.13;;;1.85;100.00
3096;BME280;1558;42.700;23.360;2024-01-27T01:06:48;95779.53;;;1.84;100.00
3096;BME280;1558;42.700;23.360;2024-01-27T01:09:16;95777.66;;;1.70;100.00
3096;BME280;1558;42.700;23.360;2024-01-27T01:11:47;95763.00;;;1.62;100.00
3096;BME280;1558;42.700;23.360;2024-01-27T01:14:15;95791.50;;;1.92;100.00
3096;BME280;1558;42.700;23.360;2024-01-27T01:16:43;95791.47;;;1.77;100.00
3096;BME280;1558;42.700;23.360;2024-01-27T01:19:13;95689.03;;;0.99;100.00
3096;BME280;1558;42.700;23.360;2024-01-27T01:21:42;95793.22;;;1.26;100.00
3096;BME280;1558;42.700;23.360;2024-01-27T01:24:10;95791.88;;;1.23;100.00
3096;BME280;1558;42.700;23.360;2024-01-27T01:26:38;95783.41;;;1.36;100.00
3096;BME280;1558;42.700;23.360;2024-01-27T01:29:06;95778.94;;;1.42;100.00
3096;BME280;1558;42.700;23.360;2024-01-27T01:31:35;95753.09;;;1.27;100.00
3096;BME280;1558;42.700;23.360;2024-01-27T01:34:03;95781.00;;;1.25;100.00
3096;BME280;1558;42.700;23.360;2024-01-27T01:36:32;95724.59;;;1.03;100.00
3096;BME280;1558;42.700;23.360;2024-01-27T01:39:01;95774.09;;;1.34;100.00
3096;BME280;1558;42.700;23.360;2024-01-27T01:41:30;95773.31;;;1.33;100.00
3096;BME280;1558;42.700;23.360;2024-01-27T01:43:59;95769.34;;;1.46;100.00
3096;BME280;1558;42.700;23.360;2024-01-27T01:46:28;95763.53;;;1.54;100.00
3096;BME280;1558;42.700;23.360;2024-01-27T01:48:56;95760.88;;;1.69;100.00
3096;BME280;1558;42.700;23.360;2024-01-27T01:51:26;95644.13;;;0.87;100.00
3096;BME280;1558;42.700;23.360;2024-01-27T01:53:58;95764.63;;;1.78;100.00
3096;BME280;1558;42.700;23.360;2024-01-27T01:56:27;95483.44;;;0.24;100.00
3096;BME280;1558;42.700;23.360;2024-01-27T01:58:55;95439.97;;;0.20;100.00
3096;BME280;1558;42.700;23.360;2024-01-27T02:01:24;95749.97;;;2.56;100.00
3096;BME280;1558;42.700;23.360;2024-01-27T02:03:53;95742.72;;;2.72;100.00
3096;BME280;1558;42.700;23.360;2024-01-27T02:06:21;95746.09;;;2.98;100.00
3096;BME280;1558;42.700;23.360;2024-01-27T02:08:50;95732.84;;;3.41;100.00
3096;BME280;1558;42.700;23.360;2024-01-27T02:11:20;95725.59;;;3.47;100.00
3096;BME280;1558;42.700;23.360;2024-01-27T02:13:48;95723.44;;;3.54;100.00
3096;BME280;1558;42.700;23.360;2024-01-27T02:16:16;95719.97;;;3.54;100.00
3096;BME280;1558;42.700;23.360;2024-01-27T02:18:45;95721.22;;;3.66;100.00
3096;BME280;1558;42.700;23.360;2024-01-27T02:21:15;95721.47;;;3.70;99.97
3096;BME280;1558;42.700;23.360;2024-01-27T02:23:45;95675.88;;;3.32;99.00
3096;BME280;1558;42.700;23.360;2024-01-27T02:26:24;95730.41;;;3.89;99.17
3096;BME280;1558;42.700;23.360;2024-01-27T02:28:55;95735.56;;;3.75;97.27
3096;BME280;1558;42.700;23.360;2024-01-27T02:31:28;95729.22;;;3.66;96.89
3096;BME280;1558;42.700;23.360;2024-01-27T02:34:01;95661.97;;;3.35;95.60
3096;BME280;1558;42.700;23.360;2024-01-27T02:36:30;95719.25;;;3.82;95.31
3096;BME280;1558;42.700;23.360;2024-01-27T02:39:01;95719.81;;;3.74;95.11
3096;BME280;1558;42.700;23.360;2024-01-27T02:41:46;95600.56;;;2.68;94.00
3096;BME280;1558;42.700;23.360;2024-01-27T02:44:17;95732.06;;;3.80;93.99
3096;BME280;1558;42.700;23.360;2024-01-27T02:46:46;95714.53;;;3.69;93.14
3096;BME280;1558;42.700;23.360;2024-01-27T02:49:22;95719.38;;;3.62;92.66
3096;BME280;1558;42.700;23.360;2024-01-27T02:51:56;95707.84;;;3.71;93.00
3096;BME280;1558;42.700;23.360;2024-01-27T02:54:29;95713.44;;;3.75;91.84
3096;BME280;1558;42.700;23.360;2024-01-27T02:57:00;95712.88;;;3.78;91.85
3096;BME280;1558;42.700;23.360;2024-01-27T02:59:29;95720.81;;;3.83;91.52
3096;BME280;1558;42.700;23.360;2024-01-27T03:01:59;95727.75;;;3.84;90.74
3096;BME280;1558;42.700;23.360;2024-01-27T03:04:32;95639.31;;;3.33;89.71
3096;BME280;1558;42.700;23.360;2024-01-27T03:07:07;95722.84;;;4.01;89.61
3096;BME280;1558;42.700;23.360;2024-01-27T03:09:35;95716.63;;;4.10;89.06
3096;BME280;1558;42.700;23.360;2024-01-27T03:12:06;95723.31;;;4.08;88.80
3096;BME280;1558;42.700;23.360;2024-01-27T03:14:34;95726.50;;;4.10;89.60
3096;BME280;1558;42.700;23.360;2024-01-27T03:17:03;95695.19;;;3.87;88.99
3096;BME280;1558;42.700;23.360;2024-01-27T03:19:31;95731.91;;;4.00;89.19
3096;BME280;1558;42.700;23.360;2024-01-27T03:21:59;95732.47;;;3.97;88.50
3096;BME280;1558;42.700;23.360;2024-01-27T03:24:29;95628.94;;;3.31;88.94
3096;BME280;1558;42.700;23.360;2024-01-27T03:26:57;95734.13;;;3.88;88.29
3096;BME280;1558;42.700;23.360;2024-01-27T03:29:29;95733.50;;;4.01;88.42
3096;BME280;1558;42.700;23.360;2024-01-27T03:31:57;95730.28;;;4.04;88.24
3096;BME280;1558;42.700;23.360;2024-01-27T03:34:25;95726.91;;;4.22;88.28
3096;BME280;1558;42.700;23.360;2024-01-27T03:37:04;95731.34;;;4.37;88.37
3096;BME280;1558;42.700;23.360;2024-01-27T03:39:41;95716.50;;;4.49;88.49
3096;BME280;1558;42.700;23.360;2024-01-27T03:42:17;95716.00;;;4.47;89.78
3096;BME280;1558;42.700;23.360;2024-01-27T03:44:53;95710.13;;;4.45;90.87
3096;BME280;1558;42.700;23.360;2024-01-27T03:47:21;95707.88;;;4.57;92.02
3096;BME280;1558;42.700;23.360;2024-01-27T03:49:50;95705.25;;;4.52;93.26
3096;BME280;1558;42.700;23.360;2024-01-27T03:52:18;95704.53;;;4.47;94.67
3096;BME280;1558;42.700;23.360;2024-01-27T03:54:46;95698.44;;;4.41;95.79
3096;BME280;1558;42.700;23.360;2024-01-27T03:57:15;95697.88;;;4.44;96.99
3096;BME280;1558;42.700;23.360;2024-01-27T03:59:43;95709.69;;;4.38;97.58
3096;BME280;1558;42.700;23.360;2024-01-27T04:02:20;95705.47;;;4.32;99.33
3096;BME280;1558;42.700;23.360;2024-01-27T04:04:51;95677.84;;;4.18;100.00
3096;BME280;1558;42.700;23.360;2024-01-27T04:07:19;95712.44;;;4.28;100.00
3096;BME280;1558;42.700;23.360;2024-01-27T04:09:51;95712.47;;;4.23;100.00
3096;BME280;1558;42.700;23.360;2024-01-27T04:12:26;95705.59;;;4.17;100.00
3096;BME280;1558;42.700;23.360;2024-01-27T04:14:54;95701.63;;;4.15;100.00
3096;BME280;1558;42.700;23.360;2024-01-27T04:17:25;95695.72;;;4.18;100.00
3096;BME280;1558;42.700;23.360;2024-01-27T04:19:54;95652.78;;;3.85;100.00
3096;BME280;1558;42.700;23.360;2024-01-27T04:22:23;95687.78;;;4.13;100.00
3096;BME280;1558;42.700;23.360;2024-01-27T04:24:51;95690.44;;;4.13;100.00
3096;BME280;1558;42.700;23.360;2024-01-27T04:27:20;95699.72;;;4.20;100.00
3096;BME280;1558;42.700;23.360;2024-01-27T04:29:50;95663.63;;;3.99;100.00
3096;BME280;1558;42.700;23.360;2024-01-27T04:32:18;95698.06;;;4.24;100.00
3096;BME280;1558;42.700;23.360;2024-01-27T04:34:49;95699.38;;;4.27;100.00
3096;BME280;1558;42.700;23.360;2024-01-27T04:37:20;95645.81;;;3.89;100.00
3096;BME280;1558;42.700;23.360;2024-01-27T04:39:48;95706.06;;;4.24;100.00
3096;BME280;1558;42.700;23.360;2024-01-27T04:42:20;95692.78;;;4.19;100.00
3096;BME280;1558;42.700;23.360;2024-01-27T04:44:50;95691.75;;;4.15;100.00
3096;BME280;1558;42.700;23.360;2024-01-27T04:47:23;95695.72;;;4.18;100.00
3096;BME280;1558;42.700;23.360;2024-01-27T04:49:56;95705.09;;;4.15;100.00
3096;BME280;1558;42.700;23.360;2024-01-27T04:52:27;95704.06;;;4.11;100.00
3096;BME280;1558;42.700;23.360;2024-01-27T04:54:58;95700.59;;;4.10;100.00
3096;BME280;1558;42.700;23.360;2024-01-27T04:57:33;95703.06;;;4.02;100.00
3096;BME280;1558;42.700;23.360;2024-01-27T05:00:05;95697.97;;;4.05;100.00
3096;BME280;1558;42.700;23.360;2024-01-27T05:02:43;95708.09;;;4.08;100.00
3096;BME280;1558;42.700;23.360;2024-01-27T05:05:18;95716.88;;;4.09;100.00
3096;BME280;1558;42.700;23.360;2024-01-27T05:07:48;95617.56;;;3.55;100.00
3096;BME280;1558;42.700;23.360;2024-01-27T05:10:16;95709.34;;;4.16;100.00
3096;BME280;1558;42.700;23.360;2024-01-27T05:12:44;95715.25;;;4.13;100.00
3096;BME280;1558;42.700;23.360;2024-01-27T05:15:14;95713.44;;;4.08;100.00
3096;BME280;1558;42.700;23.360;2024-01-27T05:17:46;95718.59;;;3.95;100.00
3096;BME280;1558;42.700;23.360;2024-01-27T05:20:19;95718.31;;;4.01;100.00
3096;BME280;1558;42.700;23.360;2024-01-27T05:22:47;95730.59;;;3.97;100.00
3096;BME280;1558;42.700;23.360;2024-01-27T05:25:15;95710.13;;;3.88;100.00
3096;BME280;1558;42.700;23.360;2024-01-27T05:27:44;95692.59;;;3.77;100.00
3096;BME280;1558;42.700;23.360;2024-01-27T05:30:15;95588.34;;;3.06;100.00
3096;BME280;1558;42.700;23.360;2024-01-27T05:32:44;95720.59;;;3.79;100.00
3096;BME280;1558;42.700;23.360;2024-01-27T05:35:12;95715.88;;;3.66;100.00
3096;BME280;1558;42.700;23.360;2024-01-27T05:37:42;95726.53;;;3.66;100.00
3096;BME280;1558;42.700;23.360;2024-01-27T05:40:11;95734.03;;;3.64;100.00
3096;BME280;1558;42.700;23.360;2024-01-27T05:42:39;95722.31;;;3.60;100.00
3096;BME280;1558;42.700;23.360;2024-01-27T05:45:09;95723.97;;;3.56;100.00
3096;BME280;1558;42.700;23.360;2024-01-27T05:47:38;95723.16;;;3.56;100.00
3096;BME280;1558;42.700;23.360;2024-01-27T05:50:07;95732.22;;;3.55;100.00
3096;BME280;1558;42.700;23.360;2024-01-27T05:52:35;95742.69;;;3.46;100.00
3096;BME280;1558;42.700;23.360;2024-01-27T05:55:06;95743.00;;;3.39;100.00
3096;BME280;1558;42.700;23.360;2024-01-27T05:57:37;95743.56;;;3.31;100.00
3096;BME280;1558;42.700;23.360;2024-01-27T06:00:07;95744.69;;;3.20;100.00
3096;BME280;1558;42.700;23.360;2024-01-27T06:02:37;95746.88;;;3.08;100.00
3096;BME280;1558;42.700;23.360;2024-01-27T06:05:07;95742.63;;;3.02;100.00
3096;BME280;1558;42.700;23.360;2024-01-27T06:07:37;95749.03;;;2.96;100.00
3096;BME280;1558;42.700;23.360;2024-01-27T06:10:09;95754.66;;;2.90;100.00
3096;BME280;1558;42.700;23.360;2024-01-27T06:12:38;95631.94;;;2.02;100.00
3096;BME280;1558;42.700;23.360;2024-01-27T06:15:07;95756.56;;;2.79;100.00
3096;BME280;1558;42.700;23.360;2024-01-27T06:17:37;95762.97;;;2.78;100.00
3096;BME280;1558;42.700;23.360;2024-01-27T06:20:06;95764.31;;;2.70;100.00
3096;BME280;1558;42.700;23.360;2024-01-27T06:22:34;95761.91;;;2.64;100.00
3096;BME280;1558;42.700;23.360;2024-01-27T06:25:04;95691.50;;;2.06;100.00
3096;BME280;1558;42.700;23.360;2024-01-27T06:27:33;95778.69;;;2.59;100.00
3096;BME280;1558;42.700;23.360;2024-01-27T06:30:02;95769.63;;;2.70;100.00
3096;BME280;1558;42.700;23.360;2024-01-27T06:32:34;95781.09;;;2.66;100.00
3096;BME280;1558;42.700;23.360;2024-01-27T06:35:05;95776.53;;;2.77;100.00
3096;BME280;1558;42.700;23.360;2024-01-27T06:37:44;95777.56;;;2.81;100.00
3096;BME280;1558;42.700;23.360;2024-01-27T06:40:13;95655.06;;;2.01;100.00
3096;BME280;1558;42.700;23.360;2024-01-27T06:42:43;95795.94;;;2.92;100.00
3096;BME280;1558;42.700;23.360;2024-01-27T06:45:11;95791.88;;;3.10;100.00
3096;BME280;1558;42.700;23.360;2024-01-27T06:47:40;95778.56;;;3.05;100.00
3096;BME280;1558;42.700;23.360;2024-01-27T06:50:09;95790.53;;;3.17;100.00
3096;BME280;1558;42.700;23.360;2024-01-27T06:52:38;95774.56;;;3.12;100.00
3096;BME280;1558;42.700;23.360;2024-01-27T06:55:06;95799.44;;;3.52;100.00
3096;BME280;1558;42.700;23.360;2024-01-27T06:57:37;95790.00;;;3.69;100.00
3096;BME280;1558;42.700;23.360;2024-01-27T07:00:10;95615.41;;;2.79;100.00
3096;BME280;1558;42.700;23.360;2024-01-27T07:02:42;95780.41;;;4.07;100.00
3096;BME280;1558;42.700;23.360;2024-01-27T07:05:11;95784.34;;;4.20;100.00
3096;BME280;1558;42.700;23.360;2024-01-27T07:07:42;95761.09;;;4.20;100.00
3096;BME280;1558;42.700;23.360;2024-01-27T07:10:10;95762.75;;;4.45;100.00
3096;BME280;1558;42.700;23.360;2024-01-27T07:12:38;95686.41;;;4.15;100.00
3096;BME280;1558;42.700;23.360;2024-01-27T07:15:08;95759.81;;;4.75;100.00
3096;BME280;1558;42.700;23.360;2024-01-27T07:17:37;95762.19;;;4.76;100.00
3096;BME280;1558;42.700;23.360;2024-01-27T07:20:06;95775.50;;;4.82;100.00
3096;BME280;1558;42.700;23.360;2024-01-27T07:22:35;95773.56;;;4.87;100.00
3096;BME280;1558;42.700;23.360;2024-01-27T07:25:04;95787.09;;;4.96;100.00
3096;BME280;1558;42.700;23.360;2024-01-27T07:27:33;95781.19;;;4.99;100.00
3096;BME280;1558;42.700;23.360;2024-01-27T07:30:02;95796.44;;;4.98;100.00
3096;BME280;1558;42.700;23.360;2024-01-27T07:32:33;95736.81;;;4.50;100.00
3096;BME280;1558;42.700;23.360;2024-01-27T07:35:01;95751.19;;;4.54;100.00
3096;BME280;1558;42.700;23.360;2024-01-27T07:37:34;95812.44;;;4.74;100.00
3096;BME280;1558;42.700;23.360;2024-01-27T07:40:06;95841.63;;;4.95;100.00
3096;BME280;1558;42.700;23.360;2024-01-27T07:42:35;95849.63;;;4.95;100.00
3096;BME280;1558;42.700;23.360;2024-01-27T07:45:05;95842.94;;;4.97;100.00
3096;BME280;1558;42.700;23.360;2024-01-27T07:47:34;95861.94;;;4.96;100.00
3096;BME280;1558;42.700;23.360;2024-01-27T07:50:05;95857.91;;;4.98;100.00
3096;BME280;1558;42.700;23.360;2024-01-27T07:52:33;95842.25;;;4.87;100.00
3096;BME280;1558;42.700;23.360;2024-01-27T07:55:01;95751.75;;;4.23;100.00
3096;BME280;1558;42.700;23.360;2024-01-27T07:57:30;95838.91;;;4.71;100.00
3096;BME280;1558;42.700;23.360;2024-01-27T08:00:00;95877.72;;;4.92;100.00
3096;BME280;1558;42.700;23.360;2024-01-27T08:02:30;95898.88;;;4.89;100.00
3096;BME280;1558;42.700;23.360;2024-01-27T08:04:59;95900.75;;;4.88;100.00
3096;BME280;1558;42.700;23.360;2024-01-27T08:07:28;95889.00;;;4.89;100.00
3096;BME280;1558;42.700;23.360;2024-01-27T08:09:59;95878.53;;;4.93;100.00
3096;BME280;1558;42.700;23.360;2024-01-27T08:12:27;95676.41;;;3.68;100.00
3096;BME280;1558;42.700;23.360;2024-01-27T08:14:55;95883.22;;;5.06;100.00
3096;BME280;1558;42.700;23.360;2024-01-27T08:17:24;95874.41;;;5.05;100.00
3096;BME280;1558;42.700;23.360;2024-01-27T08:19:52;95849.03;;;4.74;100.00
3096;BME280;1558;42.700;23.360;2024-01-27T08:22:21;95861.81;;;5.34;100.00
3096;BME280;1558;42.700;23.360;2024-01-27T08:24:50;95872.31;;;5.49;100.00
3096;BME280;1558;42.700;23.360;2024-01-27T08:27:18;95882.41;;;5.34;100.00
3096;BME280;1558;42.700;23.360;2024-01-27T08:29:48;95878.25;;;5.23;100.00
3096;BME280;1558;42.700;23.360;2024-01-27T08:32:22;95808.81;;;4.89;100.00
3096;BME280;1558;42.700;23.360;2024-01-27T08:34:52;95773.97;;;5.23;100.00
3096;BME280;1558;42.700;23.360;2024-01-27T08:37:22;95879.25;;;6.54;100.00
3096;BME280;1558;42.700;23.360;2024-01-27T08:39:54;95832.59;;;6.73;97.79
3096;BME280;1558;42.700;23.360;2024-01-27T08:42:22;95825.75;;;7.40;91.72
3096;BME280;1558;42.700;23.360;2024-01-27T08:44:53;95855.97;;;7.73;91.20
3096;BME280;1558;42.700;23.360;2024-01-27T08:47:22;95853.69;;;7.94;87.63
3096;BME280;1558;42.700;23.360;2024-01-27T08:49:56;95840.63;;;7.87;84.56
3096;BME280;1558;42.700;23.360;2024-01-27T08:52:25;95766.28;;;6.79;87.94
3096;BME280;1558;42.700;23.360;2024-01-27T08:54:54;95821.38;;;7.44;87.33
3096;BME280;1558;42.700;23.360;2024-01-27T08:57:22;95843.44;;;7.69;87.64
3096;BME280;1558;42.700;23.360;2024-01-27T08:59:50;95833.47;;;7.15;86.76
3096;BME280;1558;42.700;23.360;2024-01-27T09:02:19;95825.34;;;7.20;87.61
3096;BME280;1558;42.700;23.360;2024-01-27T09:04:49;95835.78;;;7.21;86.71
3096;BME280;1558;42.700;23.360;2024-01-27T09:07:27;95727.16;;;6.78;87.04
3096;BME280;1558;42.700;23.360;2024-01-27T09:09:56;95816.78;;;7.59;84.90
3096;BME280;1558;42.700;23.360;2024-01-27T09:12:27;95765.72;;;7.09;84.34
3096;BME280;1558;42.700;23.360;2024-01-27T09:14:55;95807.34;;;7.75;82.52
3096;BME280;1558;42.700;23.360;2024-01-27T09:17:23;95786.19;;;7.60;81.96
3096;BME280;1558;42.700;23.360;2024-01-27T09:19:52;95825.78;;;8.03;83.08
3096;BME280;1558;42.700;23.360;2024-01-27T09:22:20;95813.41;;;8.16;79.95
3096;BME280;1558;42.700;23.360;2024-01-27T09:24:50;95801.38;;;8.27;80.00
3096;BME280;1558;42.700;23.360;2024-01-27T09:27:19;95826.28;;;8.05;79.85
3096;BME280;1558;42.700;23.360;2024-01-27T09:29:47;95816.34;;;7.92;80.70
3096;BME280;1558;42.700;23.360;2024-01-27T09:32:15;95824.75;;;7.64;81.39
3096;BME280;1558;42.700;23.360;2024-01-27T09:34:46;95828.31;;;7.73;82.08
3096;BME280;1558;42.700;23.360;2024-01-27T09:37:16;95827.69;;;8.03;81.74
3096;BME280;1558;42.700;23.360;2024-01-27T09:39:50;95840.78;;;8.18;79.55
3096;BME280;1558;42.700;23.360;2024-01-27T09:42:20;95830.75;;;7.61;80.58
3096;BME280;1558;42.700;23.360;2024-01-27T09:44:53;95830.88;;;8.05;81.75
3096;BME280;1558;42.700;23.360;2024-01-27T09:47:24;95863.91;;;7.78;80.58
3096;BME280;1558;42.700;23.360;2024-01-27T09:49:52;95837.84;;;7.11;82.31
3096;BME280;1558;42.700;23.360;2024-01-27T09:52:21;95858.03;;;6.76;85.38
3096;BME280;1558;42.700;23.360;2024-01-27T09:54:51;95865.28;;;6.57;86.71
3096;BME280;1558;42.700;23.360;2024-01-27T09:57:21;95855.47;;;6.34;87.98
3096;BME280;1558;42.700;23.360;2024-01-27T09:59:50;95851.06;;;6.24;88.20
3096;BME280;1558;42.700;23.360;2024-01-27T10:02:18;95862.84;;;6.04;90.08
3096;BME280;1558;42.700;23.360;2024-01-27T10:04:50;95882.75;;;5.98;90.63
3096;BME280;1558;42.700;23.360;2024-01-27T10:07:19;95880.19;;;5.88;91.13
3096;BME280;1558;42.700;23.360;2024-01-27T10:09:50;95872.19;;;5.83;91.64
3096;BME280;1558;42.700;23.360;2024-01-27T10:12:20;95871.81;;;5.71;91.07
3096;BME280;1558;42.700;23.360;2024-01-27T10:14:53;95893.59;;;5.83;91.68
3096;BME280;1558;42.700;23.360;2024-01-27T10:17:21;95851.25;;;5.67;91.94
3096;BME280;1558;42.700;23.360;2024-01-27T10:19:59;95870.22;;;5.70;92.56
3096;BME280;1558;42.700;23.360;2024-01-27T10:22:28;95884.97;;;5.68;93.65
3096;BME280;1558;42.700;23.360;2024-01-27T10:24:58;95890.09;;;5.64;93.77
3096;BME280;1558;42.700;23.360;2024-01-27T10:27:26;95876.09;;;5.48;93.94
3096;BME280;1558;42.700;23.360;2024-01-27T10:29:54;95867.72;;;5.55;94.15
3096;BME280;1558;42.700;23.360;2024-01-27T10:32:23;95887.13;;;5.42;94.83
3096;BME280;1558;42.700;23.360;2024-01-27T10:35:01;95900.03;;;5.35;95.88
3096;BME280;1558;42.700;23.360;2024-01-27T10:37:30;95900.09;;;5.30;96.45
3096;BME280;1558;42.700;23.360;2024-01-27T10:40:05;95906.81;;;5.27;97.37
3096;BME280;1558;42.700;23.360;2024-01-27T10:42:35;95920.06;;;5.37;97.23
3096;BME280;1558;42.700;23.360;2024-01-27T10:45:05;95919.28;;;5.37;96.89
3096;BME280;1558;42.700;23.360;2024-01-27T10:47:33;95918.19;;;5.38;97.54
3096;BME280;1558;42.700;23.360;2024-01-27T10:50:02;95892.91;;;5.25;96.87
3096;BME280;1558;42.700;23.360;2024-01-27T10:52:32;95923.31;;;5.34;97.26
3096;BME280;1558;42.700;23.360;2024-01-27T10:55:03;95911.56;;;5.30;97.57
3096;BME280;1558;42.700;23.360;2024-01-27T10:57:36;95921.41;;;5.35;98.22
3096;BME280;1558;42.700;23.360;2024-01-27T11:00:06;95930.44;;;5.44;97.46
3096;BME280;1558;42.700;23.360;2024-01-27T11:02:36;95928.69;;;5.34;96.70
3096;BME280;1558;42.700;23.360;2024-01-27T11:05:10;95914.78;;;5.32;97.96
3096;BME280;1558;42.700;23.360;2024-01-27T11:07:39;95928.69;;;5.34;98.22
3096;BME280;1558;42.700;23.360;2024-01-27T11:10:11;95935.88;;;5.34;98.64
3096;BME280;1558;42.700;23.360;2024-01-27T11:12:42;95927.09;;;5.28;98.75
3096;BME280;1558;42.700;23.360;2024-01-27T11:15:10;95897.88;;;5.13;99.10
3096;BME280;1558;42.700;23.360;2024-01-27T11:17:39;95922.91;;;5.22;100.00
3096;BME280;1558;42.700;23.360;2024-01-27T11:20:10;95903.97;;;5.14;100.00
3096;BME280;1558;42.700;23.360;2024-01-27T11:22:40;95914.78;;;5.32;100.00
3096;BME280;1558;42.700;23.360;2024-01-27T11:25:16;95927.41;;;5.27;100.00
3096;BME280;1558;42.700;23.360;2024-01-27T11:27:46;95914.72;;;5.09;100.00
3096;BME280;1558;42.700;23.360;2024-01-27T11:30:26;95939.84;;;5.13;100.00
3096;BME280;1558;42.700;23.360;2024-01-27T11:32:56;95940.34;;;5.15;100.00
3096;BME280;1558;42.700;23.360;2024-01-27T11:35:25;95954.78;;;5.14;100.00
3096;BME280;1558;42.700;23.360;2024-01-27T11:37:55;95959.06;;;5.15;100.00
3096;BME280;1558;42.700;23.360;2024-01-27T11:40:25;95955.59;;;5.14;100.00
3096;BME280;1558;42.700;23.360;2024-01-27T11:42:56;95950.56;;;5.08;100.00
3096;BME280;1558;42.700;23.360;2024-01-27T11:45:25;95961.25;;;5.08;100.00
3096;BME280;1558;42.700;23.360;2024-01-27T11:47:55;95953.25;;;5.08;100.00
3096;BME280;1558;42.700;23.360;2024-01-27T11:50:24;95929.81;;;4.95;100.00
3096;BME280;1558;42.700;23.360;2024-01-27T11:52:52;95959.94;;;5.05;100.00
3096;BME280;1558;42.700;23.360;2024-01-27T11:55:20;95953.56;;;5.01;100.00
3096;BME280;1558;42.700;23.360;2024-01-27T11:57:50;95968.81;;;5.01;100.00
3096;BME280;1558;42.700;23.360;2024-01-27T12:00:19;95971.00;;;4.94;100.00
3096;BME280;1558;42.700;23.360;2024-01-27T12:02:50;95913.53;;;4.57;100.00
3096;BME280;1558;42.700;23.360;2024-01-27T12:05:19;95975.00;;;4.96;98.41
3096;BME280;1558;42.700;23.360;2024-01-27T12:07:48;95980.31;;;5.01;98.72
3096;BME280;1558;42.700;23.360;2024-01-27T12:10:16;95962.63;;;5.05;96.80
3096;BME280;1558;42.700;23.360;2024-01-27T12:12:45;95969.00;;;5.09;96.31
3096;BME280;1558;42.700;23.360;2024-01-27T12:15:16;95976.75;;;5.11;95.78
3096;BME280;1558;42.700;23.360;2024-01-27T12:17:50;95975.72;;;5.02;94.38
3096;BME280;1558;42.700;23.360;2024-01-27T12:20:19;95987.97;;;5.41;94.36
3096;BME280;1558;42.700;23.360;2024-01-27T12:22:47;95937.78;;;5.81;91.76
3096;BME280;1558;42.700;23.360;2024-01-27T12:25:16;95969.09;;;5.85;89.93
3096;BME280;1558;42.700;23.360;2024-01-27T12:27:44;95956.03;;;6.02;89.06
3096;BME280;1558;42.700;23.360;2024-01-27T12:30:14;95951.53;;;6.59;86.83
3096;BME280;1558;42.700;23.360;2024-01-27T12:32:43;95985.00;;;6.80;84.37
3096;BME280;1558;42.700;23.360;2024-01-27T12:35:12;95965.41;;;6.85;84.63
3096;BME280;1558;42.700;23.360;2024-01-27T12:37:43;95928.63;;;6.85;81.83
3096;BME280;1558;42.700;23.360;2024-01-27T12:40:17;95964.00;;;6.68;82.17
3096;BME280;1558;42.700;23.360;2024-01-27T12:42:50;95972.44;;;6.20;83.71
3096;BME280;1558;42.700;23.360;2024-01-27T12:45:22;95943.50;;;5.74;84.64
3096;BME280;1558;42.700;23.360;2024-01-27T12:47:52;95943.69;;;5.54;86.57
3096;BME280;1558;42.700;23.360;2024-01-27T12:50:21;95965.34;;;5.86;86.61
3096;BME280;1558;42.700;23.360;2024-01-27T12:52:52;95929.72;;;6.09;85.21
3096;BME280;1558;42.700;23.360;2024-01-27T12:55:21;95954.09;;;6.50;85.20
3096;BME280;1558;42.700;23.360;2024-01-27T12:57:50;95941.00;;;6.67;82.81
3096;BME280;1558;42.700;23.360;2024-01-27T13:00:19;95947.06;;;6.54;82.59
3096;BME280;1558;42.700;23.360;2024-01-27T13:02:49;95949.72;;;6.54;82.41
3096;BME280;1558;42.700;23.360;2024-01-27T13:05:17;95947.25;;;6.21;83.00
3096;BME280;1558;42.700;23.360;2024-01-27T13:07:46;95938.63;;;6.05;82.55
3096;BME280;1558;42.700;23.360;2024-01-27T13:10:15;95946.41;;;6.25;80.98
3096;BME280;1558;42.700;23.360;2024-01-27T13:12:44;95905.88;;;6.32;79.16
3096;BME280;1558;42.700;23.360;2024-01-27T13:15:31;95942.94;;;6.62;77.13
3096;BME280;1558;42.700;23.360;2024-01-27T13:17:59;95944.16;;;6.69;76.98
3096;BME280;1558;42.700;23.360;2024-01-27T13:20:27;95923.81;;;6.50;76.38
3096;BME280;1558;42.700;23.360;2024-01-27T13:22:56;95947.84;;;6.55;74.69
3096;BME280;1558;42.700;23.360;2024-01-27T13:25:25;95953.28;;;6.50;74.88
3096;BME280;1558;42.700;23.360;2024-01-27T13:27:53;95953.78;;;6.70;75.20
3096;BME280;1558;42.700;23.360;2024-01-27T13:30:29;95889.28;;;6.48;73.05
3096;BME280;1558;42.700;23.360;2024-01-27T13:33:00;95974.28;;;6.61;71.98